createdAt,value
2023-05-16T00:03:38.189Z,97746.50
2023-05-16T00:07:43.845Z,97760.50
2023-05-16T00:11:46.931Z,97755.44
2023-05-16T00:15:49.564Z,97746.91
2023-05-16T00:19:58.208Z,97753.13
2023-05-16T00:24:00.634Z,97756.81
2023-05-16T00:28:02.857Z,97749.16
2023-05-16T00:32:08.687Z,97753.63
2023-05-16T00:36:11.230Z,97757.22
2023-05-16T00:40:14.176Z,97762.56
2023-05-16T00:44:17.848Z,97763.47
2023-05-16T00:48:19.987Z,97763.63
2023-05-16T00:52:22.432Z,97760.19
2023-05-16T00:56:24.483Z,97764.59
2023-05-16T01:00:27.271Z,97770.69
2023-05-16T01:04:29.574Z,97771.69
2023-05-16T01:08:31.615Z,97774.22
2023-05-16T01:12:50.513Z,97761.75
2023-05-16T01:17:01.802Z,97761.06
2023-05-16T01:21:13.415Z,97765.59
2023-05-16T01:25:36.673Z,97762.16
2023-05-16T01:29:39.070Z,97766.56
2023-05-16T01:33:41.178Z,97772.78
2023-05-16T01:38:12.768Z,97777.22
2023-05-16T01:42:16.216Z,97774.50
2023-05-16T01:46:26.262Z,97779.59
2023-05-16T01:50:34.178Z,97775.91
2023-05-16T01:54:39.411Z,97776.63
2023-05-16T01:58:41.853Z,97777.06
2023-05-16T02:02:43.909Z,97772.47
2023-05-16T02:06:46.157Z,97772.84
2023-05-16T02:10:48.155Z,97760.25
2023-05-16T02:14:50.164Z,97766.03
2023-05-16T02:18:52.596Z,97767.59
2023-05-16T02:22:54.647Z,97768.19
2023-05-16T02:26:56.644Z,97773.25
2023-05-16T02:31:01.962Z,97763.72
2023-05-16T02:35:04.606Z,97760.16
2023-05-16T02:39:07.699Z,97775.81
2023-05-16T02:43:10.151Z,97784.31
2023-05-16T02:47:12.188Z,97785.66
2023-05-16T02:51:14.210Z,97786.94
2023-05-16T02:55:22.318Z,97789.25
2023-05-16T02:59:24.842Z,97787.34
2023-05-16T03:03:27.264Z,97786.44
2023-05-16T03:07:29.344Z,97789.78
2023-05-16T03:11:36.877Z,97793.34
2023-05-16T03:15:39.138Z,97793.34
2023-05-16T03:19:41.254Z,97792.47
2023-05-16T03:23:43.519Z,97792.41
2023-05-16T03:27:45.586Z,97795.97
2023-05-16T03:31:47.782Z,97788.84
2023-05-16T03:35:50.798Z,97793.97
2023-05-16T03:39:52.829Z,97795.75
2023-05-16T03:43:54.857Z,97794.03
2023-05-16T03:47:57.485Z,97791.56
2023-05-16T03:51:59.535Z,97788.84
2023-05-16T03:56:01.524Z,97798.97
2023-05-16T04:00:07.705Z,97803.84
2023-05-16T04:04:14.162Z,97795.88
2023-05-16T04:08:16.197Z,97810.22
2023-05-16T04:12:18.228Z,97813.75
2023-05-16T04:16:20.313Z,97813.44
2023-05-16T04:20:22.363Z,97822.38
2023-05-16T04:24:26.523Z,97811.94
2023-05-16T04:28:28.557Z,97816.28
2023-05-16T04:32:30.736Z,97813.50
2023-05-16T04:36:32.847Z,97811.78
2023-05-16T04:40:35.241Z,97822.16
2023-05-16T04:44:37.450Z,97831.66
2023-05-16T04:48:39.474Z,97833.34
2023-05-16T04:52:41.696Z,97840.31
2023-05-16T04:56:43.825Z,97849.03
2023-05-16T05:00:46.015Z,97849.03
2023-05-16T05:04:48.164Z,97859.59
2023-05-16T05:08:50.386Z,97858.97
2023-05-16T05:12:52.429Z,97872.09
2023-05-16T05:16:54.655Z,97870.59
2023-05-16T05:20:56.766Z,97892.75
2023-05-16T05:24:58.861Z,97885.31
2023-05-16T05:29:05.376Z,97891.03
2023-05-16T05:33:08.227Z,97894.72
2023-05-16T05:37:10.270Z,97912.31
2023-05-16T05:41:12.330Z,97919.53
2023-05-16T05:45:15.363Z,97917.13
2023-05-16T05:49:17.458Z,97925.31
2023-05-16T05:53:19.503Z,97922.84
2023-05-16T05:57:21.522Z,97920.56
2023-05-16T06:01:24.481Z,97937.19
2023-05-16T06:05:26.949Z,97934.38
2023-05-16T06:09:29.176Z,97947.84
2023-05-16T06:13:31.181Z,97948.66
2023-05-16T06:17:33.367Z,97941.38
2023-05-16T06:21:35.602Z,97959.69
2023-05-16T06:25:37.663Z,97964.38
2023-05-16T06:29:39.677Z,97970.06
2023-05-16T06:33:41.903Z,97970.28
2023-05-16T06:37:43.918Z,97979.00
2023-05-16T06:41:46.030Z,97981.53
2023-05-16T06:45:51.583Z,97987.22
2023-05-16T06:49:53.702Z,97986.88
2023-05-16T06:53:55.830Z,97993.47
2023-05-16T06:57:57.910Z,97995.06
2023-05-16T07:02:00.032Z,97995.00
2023-05-16T07:06:02.110Z,98004.50
2023-05-16T07:10:04.739Z,98011.44
2023-05-16T07:14:06.803Z,98011.06
2023-05-16T07:18:08.927Z,98025.59
2023-05-16T07:22:12.144Z,98030.84
2023-05-16T07:26:14.231Z,98034.13
2023-05-16T07:30:16.348Z,98043.38
2023-05-16T07:34:18.502Z,98056.22
2023-05-16T07:38:21.494Z,98070.84
2023-05-16T07:42:25.143Z,98076.75
2023-05-16T07:46:27.346Z,98078.28
2023-05-16T07:50:29.502Z,98077.47
2023-05-16T07:54:33.277Z,98073.63
2023-05-16T07:58:35.666Z,98073.53
2023-05-16T08:02:38.066Z,98072.31
2023-05-16T08:06:40.260Z,98072.00
2023-05-16T08:10:42.315Z,98077.94
2023-05-16T08:14:44.359Z,98078.22
2023-05-16T08:18:47.968Z,98071.84
2023-05-16T08:22:50.084Z,98084.47
2023-05-16T08:26:52.158Z,98085.34
2023-05-16T08:30:54.499Z,98094.78
2023-05-16T08:34:56.674Z,98097.75
2023-05-16T08:38:58.689Z,98092.44
2023-05-16T08:43:01.261Z,98101.09
2023-05-16T08:47:18.831Z,98088.25
2023-05-16T08:51:21.290Z,98083.88
2023-05-16T08:55:26.827Z,98095.81
2023-05-16T08:59:29.266Z,98102.78
2023-05-16T09:03:31.441Z,98098.09
2023-05-16T09:07:33.675Z,98091.56
2023-05-16T09:11:37.162Z,98101.75
2023-05-16T09:15:39.393Z,98105.88
2023-05-16T09:19:43.639Z,98102.19
2023-05-16T09:23:49.455Z,98121.84
2023-05-16T09:27:56.035Z,98118.28
2023-05-16T09:32:05.730Z,98117.88
2023-05-16T09:36:08.361Z,98121.88
2023-05-16T09:40:10.629Z,98121.41
2023-05-16T09:44:12.935Z,98122.69
2023-05-16T09:48:16.773Z,98114.47
2023-05-16T09:52:19.172Z,98110.97
2023-05-16T09:56:21.518Z,98119.50
2023-05-16T10:00:29.844Z,98121.13
2023-05-16T10:04:32.020Z,98135.22
2023-05-16T10:08:36.593Z,98133.22
2023-05-16T10:12:39.104Z,98131.78
2023-05-16T10:16:43.771Z,98123.47
2023-05-16T10:20:49.205Z,98132.00
2023-05-16T10:25:07.030Z,98119.56
2023-05-16T10:29:10.224Z,98124.50
2023-05-16T10:33:17.195Z,98120.75
2023-05-16T10:37:19.322Z,98111.31
2023-05-16T10:41:22.065Z,98122.69
2023-05-16T10:45:24.679Z,98122.25
2023-05-16T10:49:27.735Z,98114.59
2023-05-16T10:53:34.557Z,98115.66
2023-05-16T10:57:36.884Z,98110.63
2023-05-16T11:01:41.376Z,98107.25
2023-05-16T11:05:43.872Z,98094.63
2023-05-16T11:09:46.524Z,98101.50
2023-05-16T11:13:55.637Z,98111.44
2023-05-16T11:18:27.058Z,98119.72
2023-05-16T11:22:29.688Z,98117.94
2023-05-16T11:26:31.954Z,98122.44
2023-05-16T11:30:34.145Z,98114.53
2023-05-16T11:34:38.001Z,98114.06
2023-05-16T11:38:43.394Z,98114.50
2023-05-16T11:42:50.506Z,98123.28
2023-05-16T11:46:52.747Z,98112.25
2023-05-16T11:50:55.162Z,98113.19
2023-05-16T11:55:01.292Z,98118.38
2023-05-16T11:59:03.724Z,98108.22
2023-05-16T12:03:06.575Z,98124.81
2023-05-16T12:07:08.806Z,98123.31
2023-05-16T12:11:10.884Z,98113.66
2023-05-16T12:15:14.012Z,98123.78
2023-05-16T12:19:16.514Z,98108.66
2023-05-16T12:23:18.740Z,98118.81
2023-05-16T12:27:27.991Z,98123.03
2023-05-16T12:31:32.581Z,98116.34
2023-05-16T12:35:37.361Z,98115.88
2023-05-16T12:39:39.556Z,98125.97
2023-05-16T12:43:41.674Z,98118.41
2023-05-16T12:47:44.336Z,98115.75
2023-05-16T12:51:58.527Z,98136.34
2023-05-16T12:56:00.664Z,98131.56
2023-05-16T13:00:02.805Z,98130.88
2023-05-16T13:04:05.276Z,98139.13
2023-05-16T13:08:07.663Z,98145.56
2023-05-16T13:12:09.834Z,98136.56
2023-05-16T13:16:11.987Z,98126.34
2023-05-16T13:20:15.009Z,98145.94
2023-05-16T13:24:17.489Z,98152.31
2023-05-16T13:28:19.553Z,98144.94
2023-05-16T13:32:21.671Z,98140.75
2023-05-16T13:36:23.725Z,98148.31
2023-05-16T13:40:25.823Z,98145.28
2023-05-16T13:44:27.942Z,98165.84
2023-05-16T13:48:29.978Z,98157.53
2023-05-16T13:52:32.188Z,98163.47
2023-05-16T13:56:34.255Z,98162.69
2023-05-16T14:00:45.166Z,98176.66
2023-05-16T14:04:49.895Z,98165.41
2023-05-16T14:08:52.330Z,98164.78
2023-05-16T14:12:54.380Z,98162.09
2023-05-16T14:16:56.501Z,98170.56
2023-05-16T14:20:58.829Z,98165.56
2023-05-16T14:25:00.997Z,98170.63
2023-05-16T14:29:03.147Z,98167.25
2023-05-16T14:33:06.173Z,98171.19
2023-05-16T14:37:10.218Z,98157.34
2023-05-16T14:41:12.457Z,98173.78
2023-05-16T14:45:15.194Z,98179.38
2023-05-16T14:49:17.411Z,98169.25
2023-05-16T14:53:21.476Z,98163.06
2023-05-16T14:57:23.552Z,98171.88
2023-05-16T15:01:25.943Z,98179.22
2023-05-16T15:05:29.281Z,98182.00
2023-05-16T15:09:31.505Z,98177.16
2023-05-16T15:13:33.528Z,98191.50
2023-05-16T15:17:35.624Z,98184.06
2023-05-16T15:21:37.814Z,98192.13
2023-05-16T15:25:39.874Z,98197.19
2023-05-16T15:29:42.106Z,98197.28
2023-05-16T15:33:48.133Z,98188.81
2023-05-16T15:37:52.824Z,98204.25
2023-05-16T15:45:59.998Z,98207.59
2023-05-16T15:50:02.378Z,98196.38
2023-05-16T15:54:04.933Z,98187.91
2023-05-16T15:58:07.007Z,98188.53
2023-05-16T16:02:09.123Z,98178.47
2023-05-16T16:06:11.350Z,98174.50
2023-05-16T16:10:13.481Z,98170.00
2023-05-16T16:14:15.841Z,98177.91
2023-05-16T16:18:17.884Z,98173.94
2023-05-16T16:22:22.284Z,98167.09
2023-05-16T16:26:24.837Z,98162.06
2023-05-16T16:30:27.763Z,98156.69
2023-05-16T16:34:29.835Z,98155.81
2023-05-16T16:38:31.857Z,98161.00
2023-05-16T16:42:33.880Z,98161.41
2023-05-16T16:46:36.266Z,98167.44
2023-05-16T16:50:38.392Z,98174.25
2023-05-16T16:54:40.668Z,98178.88
2023-05-16T16:58:42.756Z,98180.56
2023-05-16T17:02:44.971Z,98181.28
2023-05-16T17:06:48.659Z,98179.34
2023-05-16T17:10:51.008Z,98178.03
2023-05-16T17:14:53.580Z,98189.56
2023-05-16T17:18:56.342Z,98186.00
2023-05-16T17:22:58.467Z,98188.94
2023-05-16T17:27:01.647Z,98182.75
2023-05-16T17:31:03.970Z,98198.56
2023-05-16T17:35:06.479Z,98202.41
2023-05-16T17:39:10.477Z,98198.03
2023-05-16T17:43:12.594Z,98202.72
2023-05-16T17:47:14.736Z,98206.19
2023-05-16T17:51:16.772Z,98214.31
2023-05-16T17:55:18.836Z,98215.69
2023-05-16T17:59:21.044Z,98222.16
2023-05-16T18:03:23.209Z,98231.41
2023-05-16T18:07:26.573Z,98229.66
2023-05-16T18:11:28.725Z,98231.13
2023-05-16T18:15:30.808Z,98230.94
2023-05-16T18:19:32.936Z,98238.84
2023-05-16T18:23:35.032Z,98238.06
2023-05-16T18:27:37.856Z,98254.28
2023-05-16T18:31:42.254Z,98254.03
2023-05-16T18:35:44.268Z,98259.84
2023-05-16T18:39:48.385Z,98263.75
2023-05-16T18:43:50.398Z,98260.63
2023-05-16T18:47:53.083Z,98275.19
2023-05-16T18:51:55.866Z,98276.47
2023-05-16T18:55:58.547Z,98274.38
2023-05-16T19:00:01.595Z,98279.44
2023-05-16T19:04:04.087Z,98279.91
2023-05-16T19:08:07.017Z,98285.75
2023-05-16T19:12:09.168Z,98291.53
2023-05-16T19:16:11.316Z,98305.91
2023-05-16T19:20:13.335Z,98307.16
2023-05-16T19:24:15.996Z,98311.72
2023-05-16T19:28:18.129Z,98325.09
2023-05-16T19:32:20.381Z,98320.28
2023-05-16T19:36:22.520Z,98332.78
2023-05-16T19:40:24.560Z,98338.28
2023-05-16T19:44:26.671Z,98341.22
2023-05-16T19:48:29.195Z,98352.03
2023-05-16T19:52:31.355Z,98358.56
2023-05-16T19:56:33.563Z,98361.53
2023-05-16T20:00:35.724Z,98365.28
2023-05-16T20:04:37.883Z,98379.56
2023-05-16T20:08:39.951Z,98381.63
2023-05-16T20:12:42.250Z,98384.50
2023-05-16T20:16:44.310Z,98390.75
2023-05-16T20:20:46.430Z,98389.03
2023-05-16T20:24:48.449Z,98397.31
2023-05-16T20:28:50.648Z,98410.56
2023-05-16T20:32:52.989Z,98405.72
2023-05-16T20:36:55.097Z,98414.59
2023-05-16T20:40:57.253Z,98423.59
2023-05-16T20:44:59.425Z,98428.22
2023-05-16T20:49:01.696Z,98426.66
2023-05-16T20:53:03.867Z,98441.75
2023-05-16T20:57:06.153Z,98435.00
2023-05-16T21:01:08.935Z,98435.97
2023-05-16T21:05:34.703Z,98446.72
2023-05-16T21:09:33.787Z,98443.38
2023-05-16T21:13:35.848Z,98442.56
2023-05-16T21:17:39.431Z,98443.69
2023-05-16T21:21:41.643Z,98441.34
2023-05-16T21:25:43.727Z,98448.78
2023-05-16T21:29:45.768Z,98459.59
2023-05-16T21:33:47.956Z,98456.53
2023-05-16T21:37:49.985Z,98458.31
2023-05-16T21:41:52.201Z,98466.94
2023-05-16T21:45:54.246Z,98463.34
2023-05-16T21:49:56.302Z,98466.94
2023-05-16T21:53:58.387Z,98476.59
2023-05-16T21:58:01.609Z,98485.50
2023-05-16T22:02:03.809Z,98484.56
2023-05-16T22:06:06.166Z,98485.72
2023-05-16T22:10:10.592Z,98484.13
2023-05-16T22:14:12.717Z,98486.78
2023-05-16T22:18:14.963Z,98496.31
2023-05-16T22:22:17.164Z,98493.56
2023-05-16T22:26:19.203Z,98489.44
2023-05-16T22:30:21.361Z,98490.31
2023-05-16T22:34:23.756Z,98483.38
2023-05-16T22:38:25.774Z,98484.34
2023-05-16T22:42:28.509Z,98474.00
2023-05-16T22:46:30.621Z,98486.16
2023-05-16T22:50:32.688Z,98481.88
2023-05-16T22:54:34.719Z,98479.34
2023-05-16T22:58:36.776Z,98479.44
2023-05-16T23:02:39.209Z,98488.28
2023-05-16T23:06:41.375Z,98489.19
2023-05-16T23:10:43.426Z,98487.47
2023-05-16T23:14:45.550Z,98487.59
2023-05-16T23:18:47.717Z,98493.75
2023-05-16T23:22:49.820Z,98488.66
2023-05-16T23:26:51.943Z,98489.69
2023-05-16T23:30:54.146Z,98497.66
2023-05-16T23:34:56.667Z,98497.84
2023-05-16T23:38:58.792Z,98498.81
2023-05-16T23:43:00.867Z,98494.63
2023-05-16T23:47:02.991Z,98501.88
2023-05-16T23:51:07.450Z,98503.00
2023-05-16T23:55:09.875Z,98506.50
2023-05-16T23:59:11.925Z,98499.72
